sensor_id;sensor_type;location;lat;lon;timestamp;P1;P2;P0
68198;PMS7003;55021;51.554;17.044;2023-03-03T00:14:09;84.75;60.00;33.75
68198;PMS7003;55021;51.554;17.044;2023-03-03T00:29:30;74.75;54.75;28.75
68198;PMS7003;55021;51.554;17.044;2023-03-03T00:44:42;59.75;47.75;24.00
68198;PMS7003;55021;51.554;17.044;2023-03-03T00:59:46;65.75;49.50;25.50
68198;PMS7003;55021;51.554;17.044;2023-03-03T01:14:49;67.50;51.25;26.75
68198;PMS7003;55021;51.554;17.044;2023-03-03T01:29:51;65.00;49.75;26.50
68198;PMS7003;55021;51.554;17.044;2023-03-03T02:00:18;72.25;48.75;27.00
68198;PMS7003;55021;51.554;17.044;2023-03-03T02:15:21;68.00;50.75;26.00
68198;PMS7003;55021;51.554;17.044;2023-03-03T02:30:26;57.50;41.50;20.75
68198;PMS7003;55021;51.554;17.044;2023-03-03T02:45:28;61.50;48.00;22.25
68198;PMS7003;55021;51.554;17.044;2023-03-03T03:00:31;57.75;42.25;22.00
68198;PMS7003;55021;51.554;17.044;2023-03-03T03:15:37;53.00;39.00;19.00
68198;PMS7003;55021;51.554;17.044;2023-03-03T03:30:40;55.50;43.50;21.50
68198;PMS7003;55021;51.554;17.044;2023-03-03T03:45:43;49.75;38.00;19.50
68198;PMS7003;55021;51.554;17.044;2023-03-03T04:00:46;59.50;46.00;21.75
68198;PMS7003;55021;51.554;17.044;2023-03-03T04:15:49;50.50;41.00;19.50
68198;PMS7003;55021;51.554;17.044;2023-03-03T04:30:51;48.75;39.25;18.75
68198;PMS7003;55021;51.554;17.044;2023-03-03T04:45:55;45.00;39.25;19.00
68198;PMS7003;55021;51.554;17.044;2023-03-03T05:00:58;42.50;34.00;16.75
68198;PMS7003;55021;51.554;17.044;2023-03-03T05:16:00;52.75;46.25;19.00
68198;PMS7003;55021;51.554;17.044;2023-03-03T05:31:03;48.25;38.50;18.00
68198;PMS7003;55021;51.554;17.044;2023-03-03T05:46:05;47.00;38.75;18.00
68198;PMS7003;55021;51.554;17.044;2023-03-03T06:01:08;49.50;43.00;21.50
68198;PMS7003;55021;51.554;17.044;2023-03-03T06:16:10;54.75;37.00;19.50
68198;PMS7003;55021;51.554;17.044;2023-03-03T06:31:13;61.50;47.25;23.75
68198;PMS7003;55021;51.554;17.044;2023-03-03T06:46:15;44.75;39.75;19.25
68198;PMS7003;55021;51.554;17.044;2023-03-03T07:01:18;43.00;38.00;20.50
68198;PMS7003;55021;51.554;17.044;2023-03-03T07:16:23;42.50;34.25;18.50
68198;PMS7003;55021;51.554;17.044;2023-03-03T07:31:29;60.75;46.00;20.75
68198;PMS7003;55021;51.554;17.044;2023-03-03T07:46:38;58.00;37.75;19.25
68198;PMS7003;55021;51.554;17.044;2023-03-03T08:01:43;50.25;44.00;22.00
68198;PMS7003;55021;51.554;17.044;2023-03-03T08:16:47;59.00;43.50;22.00
68198;PMS7003;55021;51.554;17.044;2023-03-03T08:31:50;52.25;33.75;18.25
68198;PMS7003;55021;51.554;17.044;2023-03-03T08:46:53;37.00;32.00;16.25
68198;PMS7003;55021;51.554;17.044;2023-03-03T09:01:56;37.25;30.50;14.75
68198;PMS7003;55021;51.554;17.044;2023-03-03T09:16:58;39.25;34.50;17.00
68198;PMS7003;55021;51.554;17.044;2023-03-03T09:32:01;45.50;40.00;20.50
68198;PMS7003;55021;51.554;17.044;2023-03-03T09:47:29;60.50;44.00;24.25
68198;PMS7003;55021;51.554;17.044;2023-03-03T10:02:45;46.00;35.25;19.00
68198;PMS7003;55021;51.554;17.044;2023-03-03T10:18:05;44.75;34.25;17.50
68198;PMS7003;55021;51.554;17.044;2023-03-03T10:33:17;50.75;36.00;19.00
68198;PMS7003;55021;51.554;17.044;2023-03-03T10:48:32;42.75;33.75;18.00
68198;PMS7003;55021;51.554;17.044;2023-03-03T11:04:02;48.75;39.50;17.75
68198;PMS7003;55021;51.554;17.044;2023-03-03T11:34:57;43.00;31.00;15.50
68198;PMS7003;55021;51.554;17.044;2023-03-03T11:50:15;41.25;32.75;17.75
68198;PMS7003;55021;51.554;17.044;2023-03-03T12:05:28;48.00;37.25;20.00
68198;PMS7003;55021;51.554;17.044;2023-03-03T12:20:42;45.50;39.00;21.25
68198;PMS7003;55021;51.554;17.044;2023-03-03T12:35:53;41.00;29.50;16.75
68198;PMS7003;55021;51.554;17.044;2023-03-03T12:51:07;42.50;34.50;17.00
68198;PMS7003;55021;51.554;17.044;2023-03-03T13:06:24;36.50;32.75;15.50
68198;PMS7003;55021;51.554;17.044;2023-03-03T13:21:34;43.25;35.00;15.00
68198;PMS7003;55021;51.554;17.044;2023-03-03T13:36:43;47.75;40.75;22.75
68198;PMS7003;55021;51.554;17.044;2023-03-03T13:51:54;61.25;42.25;20.50
68198;PMS7003;55021;51.554;17.044;2023-03-03T14:07:06;46.00;34.00;16.75
68198;PMS7003;55021;51.554;17.044;2023-03-03T14:22:17;53.25;39.25;20.50
68198;PMS7003;55021;51.554;17.044;2023-03-03T14:37:26;48.50;42.75;22.50
68198;PMS7003;55021;51.554;17.044;2023-03-03T14:52:32;45.00;37.25;17.50
68198;PMS7003;55021;51.554;17.044;2023-03-03T15:07:36;66.25;45.25;21.00
68198;PMS7003;55021;51.554;17.044;2023-03-03T15:22:47;67.75;52.25;27.50
68198;PMS7003;55021;51.554;17.044;2023-03-03T15:37:52;67.25;46.75;24.50
68198;PMS7003;55021;51.554;17.044;2023-03-03T15:53:06;52.25;41.50;20.50
68198;PMS7003;55021;51.554;17.044;2023-03-03T16:08:23;61.25;44.75;21.00
68198;PMS7003;55021;51.554;17.044;2023-03-03T16:23:33;65.75;50.75;24.25
68198;PMS7003;55021;51.554;17.044;2023-03-03T16:38:42;64.75;47.50;24.25
68198;PMS7003;55021;51.554;17.044;2023-03-03T16:53:52;72.25;53.75;30.25
68198;PMS7003;55021;51.554;17.044;2023-03-03T17:09:06;70.25;48.00;26.00
68198;PMS7003;55021;51.554;17.044;2023-03-03T17:24:23;66.50;51.75;25.75
68198;PMS7003;55021;51.554;17.044;2023-03-03T17:39:42;70.75;51.00;25.75
68198;PMS7003;55021;51.554;17.044;2023-03-03T17:55:02;77.25;55.00;29.25
68198;PMS7003;55021;51.554;17.044;2023-03-03T19:13:47;55.25;45.50;23.00
68198;PMS7003;55021;51.554;17.044;2023-03-03T19:28:53;55.25;42.25;22.00
68198;PMS7003;55021;51.554;17.044;2023-03-03T19:44:36;61.25;38.50;21.00
68198;PMS7003;55021;51.554;17.044;2023-03-03T21:02:41;58.25;46.75;23.75
68198;PMS7003;55021;51.554;17.044;2023-03-03T21:33:55;48.75;40.00;21.50
68198;PMS7003;55021;51.554;17.044;2023-03-03T21:49:55;59.33;44.67;24.67
68198;PMS7003;55021;51.554;17.044;2023-03-03T22:05:07;59.75;47.00;24.25
68198;PMS7003;55021;51.554;17.044;2023-03-03T22:20:33;73.50;50.25;27.50
68198;PMS7003;55021;51.554;17.044;2023-03-03T22:35:37;65.25;47.50;25.75
68198;PMS7003;55021;51.554;17.044;2023-03-03T22:50:45;58.50;44.25;23.75
68198;PMS7003;55021;51.554;17.044;2023-03-03T23:05:47;57.25;46.00;23.50
68198;PMS7003;55021;51.554;17.044;2023-03-03T23:20:50;58.25;40.50;22.75
68198;PMS7003;55021;51.554;17.044;2023-03-03T23:35:52;51.50;41.75;20.00
68198;PMS7003;55021;51.554;17.044;2023-03-03T23:50:54;47.00;36.50;18.25
